sensor_id;sensor_type;location;lat;lon;timestamp;temperature;humidity
75442;DHT22;64019;48.312;14.226;2023-09-18T00:02:20;17.10;99.90
75442;DHT22;64019;48.312;14.226;2023-09-18T00:04:46;17.00;99.90
75442;DHT22;64019;48.312;14.226;2023-09-18T00:07:11;17.00;99.90
75442;DHT22;64019;48.312;14.226;2023-09-18T00:09:37;17.00;99.90
75442;DHT22;64019;48.312;14.226;2023-09-18T00:12:03;17.00;99.90
75442;DHT22;64019;48.312;14.226;2023-09-18T00:14:29;16.90;99.90
75442;DHT22;64019;48.312;14.226;2023-09-18T00:16:55;16.90;99.90
75442;DHT22;64019;48.312;14.226;2023-09-18T00:19:23;16.90;99.90
75442;DHT22;64019;48.312;14.226;2023-09-18T00:21:50;16.70;99.90
75442;DHT22;64019;48.312;14.226;2023-09-18T00:24:17;16.70;99.90
75442;DHT22;64019;48.312;14.226;2023-09-18T00:26:42;16.70;99.90
75442;DHT22;64019;48.312;14.226;2023-09-18T00:29:08;16.70;99.90
75442;DHT22;64019;48.312;14.226;2023-09-18T00:31:34;16.70;99.90
75442;DHT22;64019;48.312;14.226;2023-09-18T00:33:59;16.70;99.90
75442;DHT22;64019;48.312;14.226;2023-09-18T00:36:25;16.70;99.90
75442;DHT22;64019;48.312;14.226;2023-09-18T00:38:50;16.70;99.90
75442;DHT22;64019;48.312;14.226;2023-09-18T00:41:16;16.60;99.90
75442;DHT22;64019;48.312;14.226;2023-09-18T00:43:42;16.60;99.90
75442;DHT22;64019;48.312;14.226;2023-09-18T00:46:08;16.60;99.90
75442;DHT22;64019;48.312;14.226;2023-09-18T00:48:34;16.60;99.90
75442;DHT22;64019;48.312;14.226;2023-09-18T00:50:59;16.60;99.90
75442;DHT22;64019;48.312;14.226;2023-09-18T00:53:26;16.50;99.90
75442;DHT22;64019;48.312;14.226;2023-09-18T00:55:55;16.50;99.90
75442;DHT22;64019;48.312;14.226;2023-09-18T00:58:21;16.50;99.90
75442;DHT22;64019;48.312;14.226;2023-09-18T01:00:47;16.40;99.90
75442;DHT22;64019;48.312;14.226;2023-09-18T01:03:16;16.40;99.90
75442;DHT22;64019;48.312;14.226;2023-09-18T01:05:44;16.40;99.90
75442;DHT22;64019;48.312;14.226;2023-09-18T01:08:10;16.30;99.90
75442;DHT22;64019;48.312;14.226;2023-09-18T01:10:53;16.30;99.90
75442;DHT22;64019;48.312;14.226;2023-09-18T01:13:30;16.30;99.90
75442;DHT22;64019;48.312;14.226;2023-09-18T01:16:10;16.30;99.90
75442;DHT22;64019;48.312;14.226;2023-09-18T01:18:37;16.30;99.90
75442;DHT22;64019;48.312;14.226;2023-09-18T01:21:03;16.20;99.90
75442;DHT22;64019;48.312;14.226;2023-09-18T01:23:28;16.20;99.90
75442;DHT22;64019;48.312;14.226;2023-09-18T01:25:54;16.20;99.90
75442;DHT22;64019;48.312;14.226;2023-09-18T01:28:19;16.20;99.90
75442;DHT22;64019;48.312;14.226;2023-09-18T01:30:46;16.30;99.90
75442;DHT22;64019;48.312;14.226;2023-09-18T01:33:13;16.30;99.90
75442;DHT22;64019;48.312;14.226;2023-09-18T01:35:40;16.40;99.90
75442;DHT22;64019;48.312;14.226;2023-09-18T01:38:07;16.40;99.90
75442;DHT22;64019;48.312;14.226;2023-09-18T01:40:36;16.40;99.90
75442;DHT22;64019;48.312;14.226;2023-09-18T01:43:01;16.40;99.90
75442;DHT22;64019;48.312;14.226;2023-09-18T01:45:27;16.50;99.90
75442;DHT22;64019;48.312;14.226;2023-09-18T01:47:53;16.50;99.90
75442;DHT22;64019;48.312;14.226;2023-09-18T01:50:18;16.40;99.90
75442;DHT22;64019;48.312;14.226;2023-09-18T01:52:44;16.50;99.90
75442;DHT22;64019;48.312;14.226;2023-09-18T01:55:10;16.40;99.90
75442;DHT22;64019;48.312;14.226;2023-09-18T01:57:36;16.40;99.90
75442;DHT22;64019;48.312;14.226;2023-09-18T02:00:02;16.40;99.90
75442;DHT22;64019;48.312;14.226;2023-09-18T02:02:33;16.30;99.90
75442;DHT22;64019;48.312;14.226;2023-09-18T02:04:58;16.30;99.90
75442;DHT22;64019;48.312;14.226;2023-09-18T02:07:24;16.30;99.90
75442;DHT22;64019;48.312;14.226;2023-09-18T02:09:50;16.30;99.90
75442;DHT22;64019;48.312;14.226;2023-09-18T02:12:15;16.30;99.90
75442;DHT22;64019;48.312;14.226;2023-09-18T02:14:47;16.20;99.90
75442;DHT22;64019;48.312;14.226;2023-09-18T02:17:12;16.20;99.90
75442;DHT22;64019;48.312;14.226;2023-09-18T02:19:38;16.20;99.90
75442;DHT22;64019;48.312;14.226;2023-09-18T02:22:04;16.20;99.90
75442;DHT22;64019;48.312;14.226;2023-09-18T02:24:30;16.10;99.90
75442;DHT22;64019;48.312;14.226;2023-09-18T02:26:55;16.10;99.90
75442;DHT22;64019;48.312;14.226;2023-09-18T02:29:21;16.00;99.90
75442;DHT22;64019;48.312;14.226;2023-09-18T02:31:46;16.00;99.90
75442;DHT22;64019;48.312;14.226;2023-09-18T02:34:12;16.00;99.90
75442;DHT22;64019;48.312;14.226;2023-09-18T02:36:38;16.00;99.90
75442;DHT22;64019;48.312;14.226;2023-09-18T02:39:03;15.90;99.90
75442;DHT22;64019;48.312;14.226;2023-09-18T02:41:29;15.90;99.90
75442;DHT22;64019;48.312;14.226;2023-09-18T02:43:55;15.80;99.90
75442;DHT22;64019;48.312;14.226;2023-09-18T02:46:20;15.80;99.90
75442;DHT22;64019;48.312;14.226;2023-09-18T02:48:46;15.80;99.90
75442;DHT22;64019;48.312;14.226;2023-09-18T02:51:12;15.70;99.90
75442;DHT22;64019;48.312;14.226;2023-09-18T02:53:37;15.80;99.90
75442;DHT22;64019;48.312;14.226;2023-09-18T02:56:03;15.80;99.90
75442;DHT22;64019;48.312;14.226;2023-09-18T02:58:29;15.80;99.90
75442;DHT22;64019;48.312;14.226;2023-09-18T03:00:56;15.70;99.90
75442;DHT22;64019;48.312;14.226;2023-09-18T03:03:23;15.60;99.90
75442;DHT22;64019;48.312;14.226;2023-09-18T03:05:50;15.50;99.90
75442;DHT22;64019;48.312;14.226;2023-09-18T03:08:16;15.50;99.90
75442;DHT22;64019;48.312;14.226;2023-09-18T03:10:44;15.50;99.90
75442;DHT22;64019;48.312;14.226;2023-09-18T03:13:12;15.50;99.90
75442;DHT22;64019;48.312;14.226;2023-09-18T03:15:38;15.50;99.90
75442;DHT22;64019;48.312;14.226;2023-09-18T03:18:04;15.50;99.90
75442;DHT22;64019;48.312;14.226;2023-09-18T03:20:31;15.50;99.90
75442;DHT22;64019;48.312;14.226;2023-09-18T03:22:58;15.50;99.90
75442;DHT22;64019;48.312;14.226;2023-09-18T03:25:24;15.50;99.90
75442;DHT22;64019;48.312;14.226;2023-09-18T03:27:54;15.50;99.90
75442;DHT22;64019;48.312;14.226;2023-09-18T03:30:21;15.50;99.90
75442;DHT22;64019;48.312;14.226;2023-09-18T03:32:49;15.50;99.90
75442;DHT22;64019;48.312;14.226;2023-09-18T03:35:15;15.50;99.90
75442;DHT22;64019;48.312;14.226;2023-09-18T03:37:47;15.50;99.90
75442;DHT22;64019;48.312;14.226;2023-09-18T03:40:14;15.50;99.90
75442;DHT22;64019;48.312;14.226;2023-09-18T03:42:39;15.50;99.90
75442;DHT22;64019;48.312;14.226;2023-09-18T03:45:06;15.50;99.90
75442;DHT22;64019;48.312;14.226;2023-09-18T03:47:40;15.50;99.90
75442;DHT22;64019;48.312;14.226;2023-09-18T03:50:07;15.60;99.90
75442;DHT22;64019;48.312;14.226;2023-09-18T03:52:33;15.50;99.90
75442;DHT22;64019;48.312;14.226;2023-09-18T03:54:58;15.50;99.90
75442;DHT22;64019;48.312;14.226;2023-09-18T03:57:24;15.50;99.90
75442;DHT22;64019;48.312;14.226;2023-09-18T03:59:50;15.40;99.90
75442;DHT22;64019;48.312;14.226;2023-09-18T04:02:15;15.40;99.90
75442;DHT22;64019;48.312;14.226;2023-09-18T04:04:41;15.50;99.90
75442;DHT22;64019;48.312;14.226;2023-09-18T04:07:07;15.40;99.90
75442;DHT22;64019;48.312;14.226;2023-09-18T04:09:33;15.40;99.90
75442;DHT22;64019;48.312;14.226;2023-09-18T04:12:02;15.30;99.90
75442;DHT22;64019;48.312;14.226;2023-09-18T04:14:30;15.30;99.90
75442;DHT22;64019;48.312;14.226;2023-09-18T04:16:56;15.30;99.90
75442;DHT22;64019;48.312;14.226;2023-09-18T04:19:21;15.30;99.90
75442;DHT22;64019;48.312;14.226;2023-09-18T04:21:47;15.20;99.90
75442;DHT22;64019;48.312;14.226;2023-09-18T04:24:13;15.20;99.90
75442;DHT22;64019;48.312;14.226;2023-09-18T04:40:46;15.10;99.90
75442;DHT22;64019;48.312;14.226;2023-09-18T04:47:21;15.10;99.90
75442;DHT22;64019;48.312;14.226;2023-09-18T04:53:53;15.00;99.90
75442;DHT22;64019;48.312;14.226;2023-09-18T05:03:26;15.10;99.90
75442;DHT22;64019;48.312;14.226;2023-09-18T05:06:23;15.10;99.90
75442;DHT22;64019;48.312;14.226;2023-09-18T05:09:03;15.10;99.90
75442;DHT22;64019;48.312;14.226;2023-09-18T05:11:58;15.00;99.90
75442;DHT22;64019;48.312;14.226;2023-09-18T05:14:50;15.10;99.90
75442;DHT22;64019;48.312;14.226;2023-09-18T05:17:41;15.20;99.90
75442;DHT22;64019;48.312;14.226;2023-09-18T05:20:36;15.20;99.90
75442;DHT22;64019;48.312;14.226;2023-09-18T05:23:33;15.30;99.90
75442;DHT22;64019;48.312;14.226;2023-09-18T05:25:59;15.30;99.90
75442;DHT22;64019;48.312;14.226;2023-09-18T05:28:25;15.40;99.90
75442;DHT22;64019;48.312;14.226;2023-09-18T05:30:50;15.40;99.90
75442;DHT22;64019;48.312;14.226;2023-09-18T05:33:16;15.50;99.90
75442;DHT22;64019;48.312;14.226;2023-09-18T05:35:43;15.50;99.90
75442;DHT22;64019;48.312;14.226;2023-09-18T05:38:10;15.60;99.90
75442;DHT22;64019;48.312;14.226;2023-09-18T05:40:36;15.60;99.90
75442;DHT22;64019;48.312;14.226;2023-09-18T05:43:02;15.70;99.90
75442;DHT22;64019;48.312;14.226;2023-09-18T05:45:28;15.70;99.90
75442;DHT22;64019;48.312;14.226;2023-09-18T05:47:54;15.80;99.90
75442;DHT22;64019;48.312;14.226;2023-09-18T05:50:27;15.80;99.90
75442;DHT22;64019;48.312;14.226;2023-09-18T05:52:55;15.90;99.90
75442;DHT22;64019;48.312;14.226;2023-09-18T05:55:25;15.90;99.90
75442;DHT22;64019;48.312;14.226;2023-09-18T05:57:50;15.90;99.90
75442;DHT22;64019;48.312;14.226;2023-09-18T06:00:16;16.00;99.90
75442;DHT22;64019;48.312;14.226;2023-09-18T06:02:43;16.10;99.90
75442;DHT22;64019;48.312;14.226;2023-09-18T06:05:11;16.10;99.90
75442;DHT22;64019;48.312;14.226;2023-09-18T06:07:37;16.20;99.90
75442;DHT22;64019;48.312;14.226;2023-09-18T06:10:03;16.20;99.90
75442;DHT22;64019;48.312;14.226;2023-09-18T06:12:29;16.30;99.90
75442;DHT22;64019;48.312;14.226;2023-09-18T06:14:55;16.40;99.90
75442;DHT22;64019;48.312;14.226;2023-09-18T06:17:21;16.40;99.90
75442;DHT22;64019;48.312;14.226;2023-09-18T06:19:47;16.40;99.90
75442;DHT22;64019;48.312;14.226;2023-09-18T06:22:13;16.60;99.90
75442;DHT22;64019;48.312;14.226;2023-09-18T06:24:39;16.70;99.90
75442;DHT22;64019;48.312;14.226;2023-09-18T06:27:05;16.70;99.90
75442;DHT22;64019;48.312;14.226;2023-09-18T06:29:32;16.70;99.90
75442;DHT22;64019;48.312;14.226;2023-09-18T06:31:58;16.60;99.90
75442;DHT22;64019;48.312;14.226;2023-09-18T06:34:24;16.60;99.90
75442;DHT22;64019;48.312;14.226;2023-09-18T06:36:50;16.60;99.90
75442;DHT22;64019;48.312;14.226;2023-09-18T06:39:15;16.70;99.90
75442;DHT22;64019;48.312;14.226;2023-09-18T06:41:41;16.70;99.90
75442;DHT22;64019;48.312;14.226;2023-09-18T06:44:07;16.90;99.90
75442;DHT22;64019;48.312;14.226;2023-09-18T06:46:33;16.90;99.90
75442;DHT22;64019;48.312;14.226;2023-09-18T06:48:58;17.00;99.90
75442;DHT22;64019;48.312;14.226;2023-09-18T06:51:27;17.00;99.90
75442;DHT22;64019;48.312;14.226;2023-09-18T06:53:55;17.20;99.90
75442;DHT22;64019;48.312;14.226;2023-09-18T06:56:25;17.30;99.90
75442;DHT22;64019;48.312;14.226;2023-09-18T06:58:51;17.40;99.90
75442;DHT22;64019;48.312;14.226;2023-09-18T07:01:18;17.40;99.90
75442;DHT22;64019;48.312;14.226;2023-09-18T07:03:45;17.60;99.90
75442;DHT22;64019;48.312;14.226;2023-09-18T07:06:13;17.70;99.90
75442;DHT22;64019;48.312;14.226;2023-09-18T07:08:39;17.80;99.90
75442;DHT22;64019;48.312;14.226;2023-09-18T07:11:05;17.90;99.90
75442;DHT22;64019;48.312;14.226;2023-09-18T07:17:15;18.10;99.90
75442;DHT22;64019;48.312;14.226;2023-09-18T07:19:41;18.30;99.90
75442;DHT22;64019;48.312;14.226;2023-09-18T07:22:07;18.50;99.90
75442;DHT22;64019;48.312;14.226;2023-09-18T07:24:32;18.60;99.90
75442;DHT22;64019;48.312;14.226;2023-09-18T07:30:33;19.00;99.90
75442;DHT22;64019;48.312;14.226;2023-09-18T07:36:47;19.20;99.90
75442;DHT22;64019;48.312;14.226;2023-09-18T07:47:10;19.50;99.90
75442;DHT22;64019;48.312;14.226;2023-09-18T08:03:49;20.10;99.90
75442;DHT22;64019;48.312;14.226;2023-09-18T08:06:49;20.30;99.90
75442;DHT22;64019;48.312;14.226;2023-09-18T08:09:18;20.50;99.90
75442;DHT22;64019;48.312;14.226;2023-09-18T08:11:52;20.70;99.90
75442;DHT22;64019;48.312;14.226;2023-09-18T08:14:33;20.80;99.90
75442;DHT22;64019;48.312;14.226;2023-09-18T08:17:04;20.80;99.90
75442;DHT22;64019;48.312;14.226;2023-09-18T08:19:35;20.70;99.90
75442;DHT22;64019;48.312;14.226;2023-09-18T08:22:03;20.80;99.90
75442;DHT22;64019;48.312;14.226;2023-09-18T08:24:32;20.80;99.90
75442;DHT22;64019;48.312;14.226;2023-09-18T08:27:01;20.80;99.90
75442;DHT22;64019;48.312;14.226;2023-09-18T08:29:29;20.80;99.90
75442;DHT22;64019;48.312;14.226;2023-09-18T08:31:54;20.80;99.90
75442;DHT22;64019;48.312;14.226;2023-09-18T08:34:20;20.90;99.90
75442;DHT22;64019;48.312;14.226;2023-09-18T08:36:46;20.90;99.90
75442;DHT22;64019;48.312;14.226;2023-09-18T08:39:11;20.90;99.90
75442;DHT22;64019;48.312;14.226;2023-09-18T08:41:42;20.80;99.90
75442;DHT22;64019;48.312;14.226;2023-09-18T08:44:09;20.70;99.90
75442;DHT22;64019;48.312;14.226;2023-09-18T08:46:36;20.80;99.90
75442;DHT22;64019;48.312;14.226;2023-09-18T08:49:02;20.90;99.90
75442;DHT22;64019;48.312;14.226;2023-09-18T08:51:29;21.00;99.90
75442;DHT22;64019;48.312;14.226;2023-09-18T08:54:28;21.20;99.90
75442;DHT22;64019;48.312;14.226;2023-09-18T08:57:28;21.30;99.90
75442;DHT22;64019;48.312;14.226;2023-09-18T09:03:26;21.40;99.90
75442;DHT22;64019;48.312;14.226;2023-09-18T09:05:52;21.50;99.90
75442;DHT22;64019;48.312;14.226;2023-09-18T09:08:18;21.60;99.90
75442;DHT22;64019;48.312;14.226;2023-09-18T09:10:44;21.80;99.90
75442;DHT22;64019;48.312;14.226;2023-09-18T09:17:17;22.20;99.90
75442;DHT22;64019;48.312;14.226;2023-09-18T09:20:10;22.40;99.90
75442;DHT22;64019;48.312;14.226;2023-09-18T09:22:40;22.60;99.90
75442;DHT22;64019;48.312;14.226;2023-09-18T09:25:29;22.70;99.90
75442;DHT22;64019;48.312;14.226;2023-09-18T09:27:57;22.90;99.90
75442;DHT22;64019;48.312;14.226;2023-09-18T09:30:25;23.10;99.90
75442;DHT22;64019;48.312;14.226;2023-09-18T09:32:54;23.20;99.90
75442;DHT22;64019;48.312;14.226;2023-09-18T09:35:31;23.20;99.90
75442;DHT22;64019;48.312;14.226;2023-09-18T09:38:00;23.40;99.90
75442;DHT22;64019;48.312;14.226;2023-09-18T09:40:26;23.40;99.90
75442;DHT22;64019;48.312;14.226;2023-09-18T09:42:57;23.30;99.90
75442;DHT22;64019;48.312;14.226;2023-09-18T09:45:30;23.20;99.90
75442;DHT22;64019;48.312;14.226;2023-09-18T09:47:57;23.20;99.90
75442;DHT22;64019;48.312;14.226;2023-09-18T09:50:23;23.10;99.90
75442;DHT22;64019;48.312;14.226;2023-09-18T09:52:52;23.10;99.90
75442;DHT22;64019;48.312;14.226;2023-09-18T09:55:32;23.10;99.90
75442;DHT22;64019;48.312;14.226;2023-09-18T09:58:03;23.20;99.90
75442;DHT22;64019;48.312;14.226;2023-09-18T10:00:56;23.30;99.90
75442;DHT22;64019;48.312;14.226;2023-09-18T10:03:25;23.40;99.90
75442;DHT22;64019;48.312;14.226;2023-09-18T10:05:52;23.40;99.90
75442;DHT22;64019;48.312;14.226;2023-09-18T10:08:25;23.50;99.90
75442;DHT22;64019;48.312;14.226;2023-09-18T10:17:33;23.70;99.90
75442;DHT22;64019;48.312;14.226;2023-09-18T10:20:12;23.80;99.90
75442;DHT22;64019;48.312;14.226;2023-09-18T10:22:54;23.90;99.90
75442;DHT22;64019;48.312;14.226;2023-09-18T10:25:23;23.80;99.90
75442;DHT22;64019;48.312;14.226;2023-09-18T10:27:51;23.80;99.90
75442;DHT22;64019;48.312;14.226;2023-09-18T10:30:22;23.80;99.90
75442;DHT22;64019;48.312;14.226;2023-09-18T10:32:50;23.90;99.90
75442;DHT22;64019;48.312;14.226;2023-09-18T10:38:53;24.10;99.90
75442;DHT22;64019;48.312;14.226;2023-09-18T10:45:17;24.10;99.90
75442;DHT22;64019;48.312;14.226;2023-09-18T10:47:45;24.10;99.90
75442;DHT22;64019;48.312;14.226;2023-09-18T10:50:12;24.10;99.90
75442;DHT22;64019;48.312;14.226;2023-09-18T10:52:43;24.20;99.90
75442;DHT22;64019;48.312;14.226;2023-09-18T10:55:13;24.20;99.90
75442;DHT22;64019;48.312;14.226;2023-09-18T10:57:50;24.20;99.90
75442;DHT22;64019;48.312;14.226;2023-09-18T11:00:17;24.20;99.90
75442;DHT22;64019;48.312;14.226;2023-09-18T11:02:53;24.20;99.90
75442;DHT22;64019;48.312;14.226;2023-09-18T11:05:34;24.40;99.90
75442;DHT22;64019;48.312;14.226;2023-09-18T11:11:05;24.50;99.90
75442;DHT22;64019;48.312;14.226;2023-09-18T11:13:44;24.50;99.90
75442;DHT22;64019;48.312;14.226;2023-09-18T11:18:50;24.60;99.90
75442;DHT22;64019;48.312;14.226;2023-09-18T11:21:18;24.70;99.90
75442;DHT22;64019;48.312;14.226;2023-09-18T11:24:39;24.70;99.90
75442;DHT22;64019;48.312;14.226;2023-09-18T11:26:47;24.70;99.90
75442;DHT22;64019;48.312;14.226;2023-09-18T11:29:16;24.80;99.90
75442;DHT22;64019;48.312;14.226;2023-09-18T11:31:49;24.90;99.90
75442;DHT22;64019;48.312;14.226;2023-09-18T11:54:49;25.00;99.90
75442;DHT22;64019;48.312;14.226;2023-09-18T11:57:48;25.10;99.90
75442;DHT22;64019;48.312;14.226;2023-09-18T12:00:42;25.00;99.90
75442;DHT22;64019;48.312;14.226;2023-09-18T12:03:34;25.00;99.90
75442;DHT22;64019;48.312;14.226;2023-09-18T12:06:45;25.00;99.90
75442;DHT22;64019;48.312;14.226;2023-09-18T12:09:47;25.20;99.90
75442;DHT22;64019;48.312;14.226;2023-09-18T12:12:18;25.20;99.90
75442;DHT22;64019;48.312;14.226;2023-09-18T12:14:44;25.40;99.90
75442;DHT22;64019;48.312;14.226;2023-09-18T12:17:14;25.50;99.90
75442;DHT22;64019;48.312;14.226;2023-09-18T12:19:53;25.50;99.90
75442;DHT22;64019;48.312;14.226;2023-09-18T12:22:28;25.60;99.90
75442;DHT22;64019;48.312;14.226;2023-09-18T12:25:11;25.70;99.90
75442;DHT22;64019;48.312;14.226;2023-09-18T12:28:03;25.70;99.90
75442;DHT22;64019;48.312;14.226;2023-09-18T12:31:10;25.60;99.90
75442;DHT22;64019;48.312;14.226;2023-09-18T12:34:36;25.50;99.90
75442;DHT22;64019;48.312;14.226;2023-09-18T12:36:56;25.50;99.90
75442;DHT22;64019;48.312;14.226;2023-09-18T12:39:21;25.60;99.90
75442;DHT22;64019;48.312;14.226;2023-09-18T12:41:47;25.60;99.90
75442;DHT22;64019;48.312;14.226;2023-09-18T12:44:13;25.70;99.90
75442;DHT22;64019;48.312;14.226;2023-09-18T12:46:41;25.60;99.90
75442;DHT22;64019;48.312;14.226;2023-09-18T12:49:21;25.70;99.90
75442;DHT22;64019;48.312;14.226;2023-09-18T12:55:36;25.70;99.90
75442;DHT22;64019;48.312;14.226;2023-09-18T13:01:36;25.50;99.90
75442;DHT22;64019;48.312;14.226;2023-09-18T13:04:21;25.40;99.90
75442;DHT22;64019;48.312;14.226;2023-09-18T13:07:16;25.30;99.90
75442;DHT22;64019;48.312;14.226;2023-09-18T13:10:10;25.10;99.90
75442;DHT22;64019;48.312;14.226;2023-09-18T13:12:52;24.90;99.90
75442;DHT22;64019;48.312;14.226;2023-09-18T13:15:32;25.10;99.90
75442;DHT22;64019;48.312;14.226;2023-09-18T13:18:13;25.20;99.90
75442;DHT22;64019;48.312;14.226;2023-09-18T13:20:41;25.40;99.90
75442;DHT22;64019;48.312;14.226;2023-09-18T13:23:12;25.50;99.90
75442;DHT22;64019;48.312;14.226;2023-09-18T13:25:50;25.60;99.90
75442;DHT22;64019;48.312;14.226;2023-09-18T13:28:26;25.70;99.90
75442;DHT22;64019;48.312;14.226;2023-09-18T13:30:53;25.60;99.90
75442;DHT22;64019;48.312;14.226;2023-09-18T13:33:23;25.60;99.90
75442;DHT22;64019;48.312;14.226;2023-09-18T13:35:55;25.50;99.90
75442;DHT22;64019;48.312;14.226;2023-09-18T13:38:25;25.50;99.90
75442;DHT22;64019;48.312;14.226;2023-09-18T13:40:53;25.50;99.90
75442;DHT22;64019;48.312;14.226;2023-09-18T13:43:22;25.50;99.90
75442;DHT22;64019;48.312;14.226;2023-09-18T13:45:49;25.50;99.90
75442;DHT22;64019;48.312;14.226;2023-09-18T13:48:18;25.60;99.90
75442;DHT22;64019;48.312;14.226;2023-09-18T13:50:46;25.70;99.90
75442;DHT22;64019;48.312;14.226;2023-09-18T13:53:14;25.70;99.90
75442;DHT22;64019;48.312;14.226;2023-09-18T13:55:43;25.70;99.90
75442;DHT22;64019;48.312;14.226;2023-09-18T13:58:09;25.80;99.90
75442;DHT22;64019;48.312;14.226;2023-09-18T14:00:36;25.80;99.90
75442;DHT22;64019;48.312;14.226;2023-09-18T14:03:02;25.70;99.90
75442;DHT22;64019;48.312;14.226;2023-09-18T14:05:28;25.70;99.90
75442;DHT22;64019;48.312;14.226;2023-09-18T14:07:55;25.60;99.90
75442;DHT22;64019;48.312;14.226;2023-09-18T14:10:25;25.50;99.90
75442;DHT22;64019;48.312;14.226;2023-09-18T14:12:51;25.40;99.90
75442;DHT22;64019;48.312;14.226;2023-09-18T14:15:17;25.30;99.90
75442;DHT22;64019;48.312;14.226;2023-09-18T14:17:44;25.30;99.90
75442;DHT22;64019;48.312;14.226;2023-09-18T14:20:10;25.20;99.90
75442;DHT22;64019;48.312;14.226;2023-09-18T14:22:36;25.10;99.90
75442;DHT22;64019;48.312;14.226;2023-09-18T14:25:02;25.00;99.90
75442;DHT22;64019;48.312;14.226;2023-09-18T14:27:32;25.00;99.90
75442;DHT22;64019;48.312;14.226;2023-09-18T14:29:58;24.90;99.90
75442;DHT22;64019;48.312;14.226;2023-09-18T14:32:23;24.90;99.90
75442;DHT22;64019;48.312;14.226;2023-09-18T14:34:49;24.90;99.90
75442;DHT22;64019;48.312;14.226;2023-09-18T14:37:15;24.90;99.90
75442;DHT22;64019;48.312;14.226;2023-09-18T14:39:40;24.90;99.90
75442;DHT22;64019;48.312;14.226;2023-09-18T14:42:06;24.90;99.90
75442;DHT22;64019;48.312;14.226;2023-09-18T14:44:31;24.90;99.90
75442;DHT22;64019;48.312;14.226;2023-09-18T14:46:58;24.90;99.90
75442;DHT22;64019;48.312;14.226;2023-09-18T14:49:25;24.90;99.90
75442;DHT22;64019;48.312;14.226;2023-09-18T14:51:53;24.80;99.90
75442;DHT22;64019;48.312;14.226;2023-09-18T14:54:19;24.90;99.90
75442;DHT22;64019;48.312;14.226;2023-09-18T14:56:45;24.80;99.90
75442;DHT22;64019;48.312;14.226;2023-09-18T14:59:12;24.80;99.90
75442;DHT22;64019;48.312;14.226;2023-09-18T15:01:38;24.80;99.90
75442;DHT22;64019;48.312;14.226;2023-09-18T15:04:04;24.70;99.90
75442;DHT22;64019;48.312;14.226;2023-09-18T15:06:30;24.70;99.90
75442;DHT22;64019;48.312;14.226;2023-09-18T15:09:21;24.60;99.90
75442;DHT22;64019;48.312;14.226;2023-09-18T15:12:24;24.60;99.90
75442;DHT22;64019;48.312;14.226;2023-09-18T15:14:52;24.60;99.90
75442;DHT22;64019;48.312;14.226;2023-09-18T15:17:18;24.50;99.90
75442;DHT22;64019;48.312;14.226;2023-09-18T15:19:44;24.50;99.90
75442;DHT22;64019;48.312;14.226;2023-09-18T15:22:13;24.50;99.90
75442;DHT22;64019;48.312;14.226;2023-09-18T15:24:39;24.50;99.90
75442;DHT22;64019;48.312;14.226;2023-09-18T15:27:05;24.40;99.90
75442;DHT22;64019;48.312;14.226;2023-09-18T15:29:31;24.40;99.90
75442;DHT22;64019;48.312;14.226;2023-09-18T15:31:56;24.30;99.90
75442;DHT22;64019;48.312;14.226;2023-09-18T15:34:23;24.30;99.90
75442;DHT22;64019;48.312;14.226;2023-09-18T15:36:49;24.30;99.90
75442;DHT22;64019;48.312;14.226;2023-09-18T15:39:15;24.30;99.90
75442;DHT22;64019;48.312;14.226;2023-09-18T15:45:17;24.10;99.90
75442;DHT22;64019;48.312;14.226;2023-09-18T15:48:15;24.00;99.90
75442;DHT22;64019;48.312;14.226;2023-09-18T15:51:09;24.00;99.90
75442;DHT22;64019;48.312;14.226;2023-09-18T15:53:50;24.00;99.90
75442;DHT22;64019;48.312;14.226;2023-09-18T15:56:28;23.90;99.90
75442;DHT22;64019;48.312;14.226;2023-09-18T15:59:02;23.90;99.90
75442;DHT22;64019;48.312;14.226;2023-09-18T16:01:33;23.80;99.90
75442;DHT22;64019;48.312;14.226;2023-09-18T16:04:07;23.70;99.90
75442;DHT22;64019;48.312;14.226;2023-09-18T16:06:37;23.60;99.90
75442;DHT22;64019;48.312;14.226;2023-09-18T16:09:09;23.50;99.90
75442;DHT22;64019;48.312;14.226;2023-09-18T16:11:36;23.40;99.90
75442;DHT22;64019;48.312;14.226;2023-09-18T16:14:03;23.30;99.90
75442;DHT22;64019;48.312;14.226;2023-09-18T16:16:44;23.20;99.90
75442;DHT22;64019;48.312;14.226;2023-09-18T16:19:13;23.00;99.90
75442;DHT22;64019;48.312;14.226;2023-09-18T16:21:41;23.00;99.90
75442;DHT22;64019;48.312;14.226;2023-09-18T16:24:12;22.80;99.90
75442;DHT22;64019;48.312;14.226;2023-09-18T16:26:42;22.70;99.90
75442;DHT22;64019;48.312;14.226;2023-09-18T16:29:13;22.60;99.90
75442;DHT22;64019;48.312;14.226;2023-09-18T16:31:42;22.60;99.90
75442;DHT22;64019;48.312;14.226;2023-09-18T16:34:09;22.50;99.90
75442;DHT22;64019;48.312;14.226;2023-09-18T16:36:37;22.40;99.90
75442;DHT22;64019;48.312;14.226;2023-09-18T16:39:15;22.30;99.90
75442;DHT22;64019;48.312;14.226;2023-09-18T16:41:45;22.10;99.90
75442;DHT22;64019;48.312;14.226;2023-09-18T16:44:16;22.00;99.90
75442;DHT22;64019;48.312;14.226;2023-09-18T16:46:42;21.90;99.90
75442;DHT22;64019;48.312;14.226;2023-09-18T16:49:14;21.70;99.90
75442;DHT22;64019;48.312;14.226;2023-09-18T16:51:51;21.60;99.90
75442;DHT22;64019;48.312;14.226;2023-09-18T16:54:22;21.60;99.90
75442;DHT22;64019;48.312;14.226;2023-09-18T16:56:53;21.50;99.90
75442;DHT22;64019;48.312;14.226;2023-09-18T16:59:19;21.40;99.90
75442;DHT22;64019;48.312;14.226;2023-09-18T17:01:48;21.40;99.90
75442;DHT22;64019;48.312;14.226;2023-09-18T17:04:14;21.30;99.90
75442;DHT22;64019;48.312;14.226;2023-09-18T17:06:42;21.20;99.90
75442;DHT22;64019;48.312;14.226;2023-09-18T17:09:11;21.20;99.90
75442;DHT22;64019;48.312;14.226;2023-09-18T17:11:40;21.10;99.90
75442;DHT22;64019;48.312;14.226;2023-09-18T17:14:06;21.10;99.90
75442;DHT22;64019;48.312;14.226;2023-09-18T17:16:32;21.00;99.90
75442;DHT22;64019;48.312;14.226;2023-09-18T17:19:01;21.00;99.90
75442;DHT22;64019;48.312;14.226;2023-09-18T17:21:29;20.90;99.90
75442;DHT22;64019;48.312;14.226;2023-09-18T17:23:55;20.90;99.90
75442;DHT22;64019;48.312;14.226;2023-09-18T17:26:20;20.80;99.90
75442;DHT22;64019;48.312;14.226;2023-09-18T17:28:47;20.80;99.90
75442;DHT22;64019;48.312;14.226;2023-09-18T17:31:13;20.80;99.90
75442;DHT22;64019;48.312;14.226;2023-09-18T17:33:39;20.70;99.90
75442;DHT22;64019;48.312;14.226;2023-09-18T17:36:06;20.60;99.90